Terminal Aerodrome Forecast
Issued by NWS

Home | Current Version | Previous Version | Text Only | Print | Product List | Glossary On
Versions: 1 2 3 4 5 6 7 8 9 10 11 12 13 14 15 16 17 18 19 20 21 22 23 24 25 26 27 28 29 30 31 32 33 34
000
FTUS45 KSLC 190540
TAFOGD
TAF
KOGD 190540Z 1906/2006 17010KT P6SM SKC
     FM190700 32010G16KT P6SM SKC
     FM190900 01008KT P6SM SKC
     FM191700 24010G16KT P6SM SCT200
     FM192100 32010G20KT P6SM SCT100 BKN150
     FM200300 32008KT P6SM BKN100=

USA.gov is the U.S. government's official web portal to all federal, state and local government web resources and services.